sensor_id;sensor_type;location;lat;lon;timestamp;temperature;humidity
44069;DHT22;29738;51.234;5.484;2023-03-20T00:01:27;9.40;99.90
44069;DHT22;29738;51.234;5.484;2023-03-20T00:03:55;9.60;99.90
44069;DHT22;29738;51.234;5.484;2023-03-20T00:06:23;9.60;99.90
44069;DHT22;29738;51.234;5.484;2023-03-20T00:08:52;9.60;99.90
44069;DHT22;29738;51.234;5.484;2023-03-20T00:13:59;9.70;99.90
44069;DHT22;29738;51.234;5.484;2023-03-20T00:16:30;9.70;99.90
44069;DHT22;29738;51.234;5.484;2023-03-20T00:18:57;9.50;99.90
44069;DHT22;29738;51.234;5.484;2023-03-20T00:21:23;9.40;99.90
44069;DHT22;29738;51.234;5.484;2023-03-20T00:23:50;9.30;99.90
44069;DHT22;29738;51.234;5.484;2023-03-20T00:26:17;9.10;99.90
44069;DHT22;29738;51.234;5.484;2023-03-20T00:28:47;8.90;99.90
44069;DHT22;29738;51.234;5.484;2023-03-20T00:31:34;8.90;99.90
44069;DHT22;29738;51.234;5.484;2023-03-20T00:34:06;8.80;99.90
44069;DHT22;29738;51.234;5.484;2023-03-20T00:36:34;8.60;99.90
44069;DHT22;29738;51.234;5.484;2023-03-20T00:39:03;8.80;99.90
44069;DHT22;29738;51.234;5.484;2023-03-20T00:44:34;8.90;99.90
44069;DHT22;29738;51.234;5.484;2023-03-20T00:47:14;9.00;99.90
44069;DHT22;29738;51.234;5.484;2023-03-20T00:49:41;8.80;99.90
44069;DHT22;29738;51.234;5.484;2023-03-20T00:52:09;8.70;99.90
44069;DHT22;29738;51.234;5.484;2023-03-20T00:54:37;8.30;99.90
44069;DHT22;29738;51.234;5.484;2023-03-20T00:57:07;8.40;99.90
44069;DHT22;29738;51.234;5.484;2023-03-20T00:59:37;8.30;99.90
44069;DHT22;29738;51.234;5.484;2023-03-20T01:02:05;8.30;99.90
44069;DHT22;29738;51.234;5.484;2023-03-20T01:04:39;8.50;99.90
44069;DHT22;29738;51.234;5.484;2023-03-20T01:07:08;8.40;99.90
44069;DHT22;29738;51.234;5.484;2023-03-20T01:09:35;8.50;99.90
44069;DHT22;29738;51.234;5.484;2023-03-20T01:12:02;8.60;99.90
44069;DHT22;29738;51.234;5.484;2023-03-20T01:14:29;8.60;99.90
44069;DHT22;29738;51.234;5.484;2023-03-20T01:16:55;8.40;99.90
44069;DHT22;29738;51.234;5.484;2023-03-20T01:19:21;8.30;99.90
44069;DHT22;29738;51.234;5.484;2023-03-20T01:21:47;8.20;99.90
44069;DHT22;29738;51.234;5.484;2023-03-20T01:24:13;8.10;99.90
44069;DHT22;29738;51.234;5.484;2023-03-20T01:26:43;8.10;99.90
44069;DHT22;29738;51.234;5.484;2023-03-20T01:29:24;8.00;99.90
44069;DHT22;29738;51.234;5.484;2023-03-20T01:31:52;8.00;99.90
44069;DHT22;29738;51.234;5.484;2023-03-20T01:34:19;8.00;99.90
44069;DHT22;29738;51.234;5.484;2023-03-20T01:36:56;7.70;99.90
44069;DHT22;29738;51.234;5.484;2023-03-20T01:39:28;7.50;99.90
44069;DHT22;29738;51.234;5.484;2023-03-20T01:41:56;7.80;99.90
44069;DHT22;29738;51.234;5.484;2023-03-20T01:44:25;7.80;99.90
44069;DHT22;29738;51.234;5.484;2023-03-20T01:46:53;7.90;99.90
44069;DHT22;29738;51.234;5.484;2023-03-20T01:51:46;7.80;99.90
44069;DHT22;29738;51.234;5.484;2023-03-20T01:54:14;7.80;99.90
44069;DHT22;29738;51.234;5.484;2023-03-20T02:01:45;8.00;99.90
44069;DHT22;29738;51.234;5.484;2023-03-20T02:04:13;7.80;99.90
44069;DHT22;29738;51.234;5.484;2023-03-20T02:06:42;7.40;99.90
44069;DHT22;29738;51.234;5.484;2023-03-20T02:09:10;7.20;99.90
44069;DHT22;29738;51.234;5.484;2023-03-20T02:11:37;7.10;99.90
44069;DHT22;29738;51.234;5.484;2023-03-20T02:14:06;7.10;99.90
44069;DHT22;29738;51.234;5.484;2023-03-20T02:16:33;7.10;99.90
44069;DHT22;29738;51.234;5.484;2023-03-20T02:18:59;7.10;99.90
44069;DHT22;29738;51.234;5.484;2023-03-20T02:27:33;7.20;99.90
44069;DHT22;29738;51.234;5.484;2023-03-20T02:36:27;6.80;99.90
44069;DHT22;29738;51.234;5.484;2023-03-20T02:39:44;6.90;99.90
44069;DHT22;29738;51.234;5.484;2023-03-20T02:42:25;7.10;99.90
44069;DHT22;29738;51.234;5.484;2023-03-20T02:48:02;7.40;99.90
44069;DHT22;29738;51.234;5.484;2023-03-20T02:50:41;7.40;99.90
44069;DHT22;29738;51.234;5.484;2023-03-20T02:53:26;7.30;99.90
44069;DHT22;29738;51.234;5.484;2023-03-20T02:56:03;7.20;99.90
44069;DHT22;29738;51.234;5.484;2023-03-20T02:58:55;7.10;99.90
44069;DHT22;29738;51.234;5.484;2023-03-20T03:01:40;7.10;99.90
44069;DHT22;29738;51.234;5.484;2023-03-20T03:04:10;7.10;99.90
44069;DHT22;29738;51.234;5.484;2023-03-20T03:06:39;7.00;99.90
44069;DHT22;29738;51.234;5.484;2023-03-20T03:09:31;6.90;99.90
44069;DHT22;29738;51.234;5.484;2023-03-20T03:12:13;6.80;99.90
44069;DHT22;29738;51.234;5.484;2023-03-20T03:14:52;7.00;99.90
44069;DHT22;29738;51.234;5.484;2023-03-20T03:17:23;6.90;99.90
44069;DHT22;29738;51.234;5.484;2023-03-20T03:19:54;7.00;99.90
44069;DHT22;29738;51.234;5.484;2023-03-20T03:22:21;7.00;99.90
44069;DHT22;29738;51.234;5.484;2023-03-20T03:24:49;7.20;99.90
44069;DHT22;29738;51.234;5.484;2023-03-20T03:27:37;7.20;99.90
44069;DHT22;29738;51.234;5.484;2023-03-20T03:30:23;7.20;99.90
44069;DHT22;29738;51.234;5.484;2023-03-20T03:35:27;7.00;99.90
44069;DHT22;29738;51.234;5.484;2023-03-20T03:37:58;7.00;99.90
44069;DHT22;29738;51.234;5.484;2023-03-20T03:46:21;7.00;99.90
44069;DHT22;29738;51.234;5.484;2023-03-20T03:48:51;7.30;99.90
44069;DHT22;29738;51.234;5.484;2023-03-20T03:51:23;7.20;99.90
44069;DHT22;29738;51.234;5.484;2023-03-20T03:53:58;7.60;99.90
44069;DHT22;29738;51.234;5.484;2023-03-20T03:56:27;7.70;99.90
44069;DHT22;29738;51.234;5.484;2023-03-20T03:58:59;7.80;99.90
44069;DHT22;29738;51.234;5.484;2023-03-20T04:01:27;7.60;99.90
44069;DHT22;29738;51.234;5.484;2023-03-20T04:03:58;7.40;99.90
44069;DHT22;29738;51.234;5.484;2023-03-20T04:06:28;7.30;99.90
44069;DHT22;29738;51.234;5.484;2023-03-20T04:08:54;7.30;99.90
44069;DHT22;29738;51.234;5.484;2023-03-20T04:11:22;7.50;99.90
44069;DHT22;29738;51.234;5.484;2023-03-20T04:13:50;7.50;99.90
44069;DHT22;29738;51.234;5.484;2023-03-20T04:16:18;7.40;99.90
44069;DHT22;29738;51.234;5.484;2023-03-20T04:18:44;7.40;99.90
44069;DHT22;29738;51.234;5.484;2023-03-20T04:21:11;7.20;99.90
44069;DHT22;29738;51.234;5.484;2023-03-20T04:23:37;7.20;99.90
44069;DHT22;29738;51.234;5.484;2023-03-20T04:26:04;7.10;99.90
44069;DHT22;29738;51.234;5.484;2023-03-20T04:28:33;7.10;99.90
44069;DHT22;29738;51.234;5.484;2023-03-20T04:31:00;7.10;99.90
44069;DHT22;29738;51.234;5.484;2023-03-20T04:33:27;7.00;99.90
44069;DHT22;29738;51.234;5.484;2023-03-20T04:35:54;6.90;99.90
44069;DHT22;29738;51.234;5.484;2023-03-20T04:38:21;6.90;99.90
44069;DHT22;29738;51.234;5.484;2023-03-20T04:40:48;6.90;99.90
44069;DHT22;29738;51.234;5.484;2023-03-20T04:43:15;6.90;99.90
44069;DHT22;29738;51.234;5.484;2023-03-20T04:45:41;6.90;99.90
44069;DHT22;29738;51.234;5.484;2023-03-20T04:48:08;6.90;99.90
44069;DHT22;29738;51.234;5.484;2023-03-20T04:50:34;7.00;99.90
44069;DHT22;29738;51.234;5.484;2023-03-20T04:53:00;7.00;99.90
44069;DHT22;29738;51.234;5.484;2023-03-20T04:55:26;7.00;99.90
44069;DHT22;29738;51.234;5.484;2023-03-20T04:57:52;7.00;99.90
44069;DHT22;29738;51.234;5.484;2023-03-20T05:00:18;7.00;99.90
44069;DHT22;29738;51.234;5.484;2023-03-20T05:02:44;7.20;99.90
44069;DHT22;29738;51.234;5.484;2023-03-20T05:05:10;7.00;99.90
44069;DHT22;29738;51.234;5.484;2023-03-20T05:07:37;6.80;99.90
44069;DHT22;29738;51.234;5.484;2023-03-20T05:10:04;6.70;99.90
44069;DHT22;29738;51.234;5.484;2023-03-20T05:12:30;6.70;99.90
44069;DHT22;29738;51.234;5.484;2023-03-20T05:14:57;6.70;99.90
44069;DHT22;29738;51.234;5.484;2023-03-20T05:17:23;6.90;99.90
44069;DHT22;29738;51.234;5.484;2023-03-20T05:19:50;6.60;99.90
44069;DHT22;29738;51.234;5.484;2023-03-20T05:22:16;6.70;99.90
44069;DHT22;29738;51.234;5.484;2023-03-20T05:24:43;6.50;99.90
44069;DHT22;29738;51.234;5.484;2023-03-20T05:27:09;6.60;99.90
44069;DHT22;29738;51.234;5.484;2023-03-20T05:29:36;6.50;99.90
44069;DHT22;29738;51.234;5.484;2023-03-20T05:32:02;6.60;99.90
44069;DHT22;29738;51.234;5.484;2023-03-20T05:34:28;6.70;99.90
44069;DHT22;29738;51.234;5.484;2023-03-20T05:36:54;6.80;99.90
44069;DHT22;29738;51.234;5.484;2023-03-20T05:39:20;6.70;99.90
44069;DHT22;29738;51.234;5.484;2023-03-20T05:41:47;6.60;99.90
44069;DHT22;29738;51.234;5.484;2023-03-20T05:44:13;6.70;99.90
44069;DHT22;29738;51.234;5.484;2023-03-20T05:46:39;6.60;99.90
44069;DHT22;29738;51.234;5.484;2023-03-20T05:49:05;6.70;99.90
44069;DHT22;29738;51.234;5.484;2023-03-20T05:51:31;6.80;99.90
44069;DHT22;29738;51.234;5.484;2023-03-20T05:53:57;6.70;99.90
44069;DHT22;29738;51.234;5.484;2023-03-20T05:56:23;6.70;99.90
44069;DHT22;29738;51.234;5.484;2023-03-20T05:58:49;6.60;99.90
44069;DHT22;29738;51.234;5.484;2023-03-20T06:01:16;6.70;99.90
44069;DHT22;29738;51.234;5.484;2023-03-20T06:03:46;6.70;99.90
44069;DHT22;29738;51.234;5.484;2023-03-20T06:06:14;6.70;99.90
44069;DHT22;29738;51.234;5.484;2023-03-20T06:08:40;6.80;99.90
44069;DHT22;29738;51.234;5.484;2023-03-20T06:11:07;6.90;99.90
44069;DHT22;29738;51.234;5.484;2023-03-20T06:13:33;6.80;99.90
44069;DHT22;29738;51.234;5.484;2023-03-20T06:15:59;6.80;99.90
44069;DHT22;29738;51.234;5.484;2023-03-20T06:18:25;6.80;99.90
44069;DHT22;29738;51.234;5.484;2023-03-20T06:20:55;6.80;99.90
44069;DHT22;29738;51.234;5.484;2023-03-20T06:23:22;7.00;99.90
44069;DHT22;29738;51.234;5.484;2023-03-20T06:25:49;7.30;99.90
44069;DHT22;29738;51.234;5.484;2023-03-20T06:28:15;7.50;99.90
44069;DHT22;29738;51.234;5.484;2023-03-20T06:30:42;7.60;99.90
44069;DHT22;29738;51.234;5.484;2023-03-20T06:33:09;7.60;99.90
44069;DHT22;29738;51.234;5.484;2023-03-20T06:35:35;7.70;99.90
44069;DHT22;29738;51.234;5.484;2023-03-20T06:38:01;7.70;99.90
44069;DHT22;29738;51.234;5.484;2023-03-20T06:40:27;7.30;99.90
44069;DHT22;29738;51.234;5.484;2023-03-20T06:42:54;7.40;99.90
44069;DHT22;29738;51.234;5.484;2023-03-20T06:45:21;7.40;99.90
44069;DHT22;29738;51.234;5.484;2023-03-20T06:47:47;7.50;99.90
44069;DHT22;29738;51.234;5.484;2023-03-20T06:50:14;7.40;99.90
44069;DHT22;29738;51.234;5.484;2023-03-20T06:52:40;7.40;99.90
44069;DHT22;29738;51.234;5.484;2023-03-20T06:55:07;7.50;99.90
44069;DHT22;29738;51.234;5.484;2023-03-20T06:57:33;7.70;99.90
44069;DHT22;29738;51.234;5.484;2023-03-20T06:59:59;7.50;99.90
44069;DHT22;29738;51.234;5.484;2023-03-20T07:02:25;7.60;99.90
44069;DHT22;29738;51.234;5.484;2023-03-20T07:04:52;7.70;99.90
44069;DHT22;29738;51.234;5.484;2023-03-20T07:07:18;7.50;99.90
44069;DHT22;29738;51.234;5.484;2023-03-20T07:09:46;7.40;99.90
44069;DHT22;29738;51.234;5.484;2023-03-20T07:12:13;7.50;99.90
44069;DHT22;29738;51.234;5.484;2023-03-20T07:14:40;7.60;99.90
44069;DHT22;29738;51.234;5.484;2023-03-20T07:17:07;7.60;99.90
44069;DHT22;29738;51.234;5.484;2023-03-20T07:19:34;8.00;99.90
44069;DHT22;29738;51.234;5.484;2023-03-20T07:22:03;8.10;99.90
44069;DHT22;29738;51.234;5.484;2023-03-20T07:24:31;8.10;99.90
44069;DHT22;29738;51.234;5.484;2023-03-20T07:26:57;8.20;99.90
44069;DHT22;29738;51.234;5.484;2023-03-20T07:29:23;8.40;99.90
44069;DHT22;29738;51.234;5.484;2023-03-20T07:31:49;8.50;99.90
44069;DHT22;29738;51.234;5.484;2023-03-20T07:34:15;8.70;99.90
44069;DHT22;29738;51.234;5.484;2023-03-20T07:36:41;8.60;99.90
44069;DHT22;29738;51.234;5.484;2023-03-20T07:39:08;8.80;99.90
44069;DHT22;29738;51.234;5.484;2023-03-20T07:41:34;8.70;99.90
44069;DHT22;29738;51.234;5.484;2023-03-20T07:44:00;8.70;99.90
44069;DHT22;29738;51.234;5.484;2023-03-20T07:46:26;8.70;99.90
44069;DHT22;29738;51.234;5.484;2023-03-20T07:48:52;8.40;99.90
44069;DHT22;29738;51.234;5.484;2023-03-20T07:51:18;8.50;99.90
44069;DHT22;29738;51.234;5.484;2023-03-20T07:53:45;8.60;99.90
44069;DHT22;29738;51.234;5.484;2023-03-20T07:56:11;8.60;99.90
44069;DHT22;29738;51.234;5.484;2023-03-20T07:58:37;8.40;99.90
44069;DHT22;29738;51.234;5.484;2023-03-20T08:01:03;8.70;99.90
44069;DHT22;29738;51.234;5.484;2023-03-20T08:03:29;8.50;99.90
44069;DHT22;29738;51.234;5.484;2023-03-20T08:05:56;8.50;99.90
44069;DHT22;29738;51.234;5.484;2023-03-20T08:08:22;8.70;99.90
44069;DHT22;29738;51.234;5.484;2023-03-20T08:10:48;8.50;99.90
44069;DHT22;29738;51.234;5.484;2023-03-20T08:13:14;8.60;99.90
44069;DHT22;29738;51.234;5.484;2023-03-20T08:15:40;8.60;99.90
44069;DHT22;29738;51.234;5.484;2023-03-20T08:18:09;8.80;99.90
44069;DHT22;29738;51.234;5.484;2023-03-20T08:20:35;8.70;99.90
44069;DHT22;29738;51.234;5.484;2023-03-20T08:23:01;8.80;99.90
44069;DHT22;29738;51.234;5.484;2023-03-20T08:25:27;8.90;99.90
44069;DHT22;29738;51.234;5.484;2023-03-20T08:27:59;8.90;99.90
44069;DHT22;29738;51.234;5.484;2023-03-20T08:30:25;8.80;99.90
44069;DHT22;29738;51.234;5.484;2023-03-20T08:32:51;8.80;99.90
44069;DHT22;29738;51.234;5.484;2023-03-20T08:35:17;8.70;99.90
44069;DHT22;29738;51.234;5.484;2023-03-20T08:37:43;8.80;99.90
44069;DHT22;29738;51.234;5.484;2023-03-20T08:40:10;8.80;99.90
44069;DHT22;29738;51.234;5.484;2023-03-20T08:42:36;8.80;99.90
44069;DHT22;29738;51.234;5.484;2023-03-20T08:45:02;8.90;99.90
44069;DHT22;29738;51.234;5.484;2023-03-20T08:47:29;8.90;99.90
44069;DHT22;29738;51.234;5.484;2023-03-20T08:49:55;8.80;99.90
44069;DHT22;29738;51.234;5.484;2023-03-20T08:52:21;8.60;99.90
44069;DHT22;29738;51.234;5.484;2023-03-20T08:54:47;8.70;99.90
44069;DHT22;29738;51.234;5.484;2023-03-20T08:57:13;8.80;99.90
44069;DHT22;29738;51.234;5.484;2023-03-20T08:59:39;8.90;99.90
44069;DHT22;29738;51.234;5.484;2023-03-20T09:02:05;8.90;99.90
44069;DHT22;29738;51.234;5.484;2023-03-20T09:04:32;8.80;99.90
44069;DHT22;29738;51.234;5.484;2023-03-20T09:06:57;8.80;99.90
44069;DHT22;29738;51.234;5.484;2023-03-20T09:09:25;8.90;99.90
44069;DHT22;29738;51.234;5.484;2023-03-20T09:11:55;8.80;99.90
44069;DHT22;29738;51.234;5.484;2023-03-20T09:14:22;8.70;99.90
44069;DHT22;29738;51.234;5.484;2023-03-20T09:16:48;8.80;99.90
44069;DHT22;29738;51.234;5.484;2023-03-20T09:19:15;8.90;99.90
44069;DHT22;29738;51.234;5.484;2023-03-20T09:21:41;8.90;99.90
44069;DHT22;29738;51.234;5.484;2023-03-20T09:24:07;9.10;99.90
44069;DHT22;29738;51.234;5.484;2023-03-20T09:26:33;8.80;99.90
44069;DHT22;29738;51.234;5.484;2023-03-20T09:28:59;8.90;99.90
44069;DHT22;29738;51.234;5.484;2023-03-20T09:31:25;8.80;99.90
44069;DHT22;29738;51.234;5.484;2023-03-20T09:33:51;8.70;99.90
44069;DHT22;29738;51.234;5.484;2023-03-20T09:36:18;8.60;99.90
44069;DHT22;29738;51.234;5.484;2023-03-20T09:38:44;8.80;99.90
44069;DHT22;29738;51.234;5.484;2023-03-20T09:41:20;8.80;99.90
44069;DHT22;29738;51.234;5.484;2023-03-20T09:49:52;8.60;99.90
44069;DHT22;29738;51.234;5.484;2023-03-20T09:51:59;8.70;99.90
44069;DHT22;29738;51.234;5.484;2023-03-20T09:54:34;8.70;99.90
44069;DHT22;29738;51.234;5.484;2023-03-20T09:57:02;8.70;99.90
44069;DHT22;29738;51.234;5.484;2023-03-20T09:59:29;8.60;99.90
44069;DHT22;29738;51.234;5.484;2023-03-20T10:02:20;8.70;99.90
44069;DHT22;29738;51.234;5.484;2023-03-20T10:04:52;8.80;99.90
44069;DHT22;29738;51.234;5.484;2023-03-20T10:07:19;8.80;99.90
44069;DHT22;29738;51.234;5.484;2023-03-20T10:09:45;8.70;99.90
44069;DHT22;29738;51.234;5.484;2023-03-20T10:12:45;8.80;99.90
44069;DHT22;29738;51.234;5.484;2023-03-20T10:18:23;8.70;99.90
44069;DHT22;29738;51.234;5.484;2023-03-20T10:20:53;8.70;99.90
44069;DHT22;29738;51.234;5.484;2023-03-20T10:23:41;8.90;99.90
44069;DHT22;29738;51.234;5.484;2023-03-20T10:26:13;8.80;99.90
44069;DHT22;29738;51.234;5.484;2023-03-20T10:28:58;8.60;99.90
44069;DHT22;29738;51.234;5.484;2023-03-20T10:31:47;8.60;99.90
44069;DHT22;29738;51.234;5.484;2023-03-20T10:34:43;8.60;99.90
44069;DHT22;29738;51.234;5.484;2023-03-20T10:37:26;8.80;99.90
44069;DHT22;29738;51.234;5.484;2023-03-20T10:42:41;8.70;99.90
44069;DHT22;29738;51.234;5.484;2023-03-20T10:45:21;8.60;99.90
44069;DHT22;29738;51.234;5.484;2023-03-20T10:47:53;8.60;99.90
44069;DHT22;29738;51.234;5.484;2023-03-20T10:50:30;8.60;99.90
44069;DHT22;29738;51.234;5.484;2023-03-20T10:52:59;8.50;99.90
44069;DHT22;29738;51.234;5.484;2023-03-20T10:55:31;8.50;99.90
44069;DHT22;29738;51.234;5.484;2023-03-20T10:58:02;8.50;99.90
44069;DHT22;29738;51.234;5.484;2023-03-20T11:00:32;8.70;99.90
44069;DHT22;29738;51.234;5.484;2023-03-20T11:02:58;8.70;99.90
44069;DHT22;29738;51.234;5.484;2023-03-20T11:05:38;8.80;99.90
44069;DHT22;29738;51.234;5.484;2023-03-20T11:08:11;8.70;99.90
44069;DHT22;29738;51.234;5.484;2023-03-20T11:10:39;8.90;99.90
44069;DHT22;29738;51.234;5.484;2023-03-20T11:13:26;8.80;99.90
44069;DHT22;29738;51.234;5.484;2023-03-20T11:15:53;8.90;99.90
44069;DHT22;29738;51.234;5.484;2023-03-20T11:18:20;8.90;99.90
44069;DHT22;29738;51.234;5.484;2023-03-20T11:20:55;9.10;99.90
44069;DHT22;29738;51.234;5.484;2023-03-20T11:23:31;9.00;99.90
44069;DHT22;29738;51.234;5.484;2023-03-20T11:26:05;9.20;99.90
44069;DHT22;29738;51.234;5.484;2023-03-20T11:28:37;9.30;99.90
44069;DHT22;29738;51.234;5.484;2023-03-20T11:33:44;9.60;99.90
44069;DHT22;29738;51.234;5.484;2023-03-20T11:36:25;9.60;99.90
44069;DHT22;29738;51.234;5.484;2023-03-20T11:38:53;9.60;99.90
44069;DHT22;29738;51.234;5.484;2023-03-20T11:41:25;9.70;99.90
44069;DHT22;29738;51.234;5.484;2023-03-20T11:43:51;9.60;99.90
44069;DHT22;29738;51.234;5.484;2023-03-20T11:46:19;9.60;99.90
44069;DHT22;29738;51.234;5.484;2023-03-20T11:49:05;9.80;99.90
44069;DHT22;29738;51.234;5.484;2023-03-20T11:51:31;9.90;99.90
44069;DHT22;29738;51.234;5.484;2023-03-20T11:54:02;9.70;99.90
44069;DHT22;29738;51.234;5.484;2023-03-20T11:56:32;10.10;99.90
44069;DHT22;29738;51.234;5.484;2023-03-20T11:59:03;9.90;99.90
44069;DHT22;29738;51.234;5.484;2023-03-20T12:01:42;9.90;99.90
44069;DHT22;29738;51.234;5.484;2023-03-20T12:04:31;10.30;99.90
44069;DHT22;29738;51.234;5.484;2023-03-20T12:07:12;10.50;99.90
44069;DHT22;29738;51.234;5.484;2023-03-20T12:09:49;10.70;99.90
44069;DHT22;29738;51.234;5.484;2023-03-20T12:12:37;10.60;99.90
44069;DHT22;29738;51.234;5.484;2023-03-20T12:20:44;10.70;99.90
44069;DHT22;29738;51.234;5.484;2023-03-20T12:26:11;10.50;99.90
44069;DHT22;29738;51.234;5.484;2023-03-20T12:31:39;10.70;99.90
44069;DHT22;29738;51.234;5.484;2023-03-20T12:34:36;10.80;99.90
44069;DHT22;29738;51.234;5.484;2023-03-20T12:37:03;11.00;99.90
44069;DHT22;29738;51.234;5.484;2023-03-20T12:39:35;10.80;99.90
44069;DHT22;29738;51.234;5.484;2023-03-20T12:42:06;10.70;99.90
44069;DHT22;29738;51.234;5.484;2023-03-20T12:44:48;10.60;99.90
44069;DHT22;29738;51.234;5.484;2023-03-20T12:47:59;10.70;99.90
44069;DHT22;29738;51.234;5.484;2023-03-20T12:50:38;10.80;99.90
44069;DHT22;29738;51.234;5.484;2023-03-20T12:53:33;10.90;99.90
44069;DHT22;29738;51.234;5.484;2023-03-20T13:01:34;10.80;99.90
44069;DHT22;29738;51.234;5.484;2023-03-20T13:06:52;10.70;99.90
44069;DHT22;29738;51.234;5.484;2023-03-20T13:20:33;10.70;99.90
44069;DHT22;29738;51.234;5.484;2023-03-20T13:28:32;10.60;99.90
44069;DHT22;29738;51.234;5.484;2023-03-20T13:31:24;11.10;99.90
44069;DHT22;29738;51.234;5.484;2023-03-20T13:34:00;10.90;99.90
44069;DHT22;29738;51.234;5.484;2023-03-20T13:41:54;11.10;99.90
44069;DHT22;29738;51.234;5.484;2023-03-20T13:44:22;11.10;99.90
44069;DHT22;29738;51.234;5.484;2023-03-20T13:46:59;11.10;99.90
44069;DHT22;29738;51.234;5.484;2023-03-20T13:49:36;11.20;99.90
44069;DHT22;29738;51.234;5.484;2023-03-20T13:52:21;11.20;99.90
44069;DHT22;29738;51.234;5.484;2023-03-20T14:00:24;11.40;99.90
44069;DHT22;29738;51.234;5.484;2023-03-20T14:05:38;11.30;99.90
44069;DHT22;29738;51.234;5.484;2023-03-20T14:11:23;11.00;99.90
44069;DHT22;29738;51.234;5.484;2023-03-20T14:16:46;10.90;99.90
44069;DHT22;29738;51.234;5.484;2023-03-20T14:19:20;10.90;99.90
44069;DHT22;29738;51.234;5.484;2023-03-20T14:21:53;11.00;99.90
44069;DHT22;29738;51.234;5.484;2023-03-20T14:24:21;11.20;99.90
44069;DHT22;29738;51.234;5.484;2023-03-20T14:26:51;11.20;99.90
44069;DHT22;29738;51.234;5.484;2023-03-20T14:29:31;11.10;99.90
44069;DHT22;29738;51.234;5.484;2023-03-20T14:34:57;11.10;99.90
44069;DHT22;29738;51.234;5.484;2023-03-20T14:37:36;11.00;99.90
44069;DHT22;29738;51.234;5.484;2023-03-20T14:40:17;11.10;99.90
44069;DHT22;29738;51.234;5.484;2023-03-20T14:45:43;11.20;99.90
44069;DHT22;29738;51.234;5.484;2023-03-20T14:48:40;11.40;99.90
44069;DHT22;29738;51.234;5.484;2023-03-20T14:54:22;11.50;99.90
44069;DHT22;29738;51.234;5.484;2023-03-20T14:56:50;11.30;99.90
44069;DHT22;29738;51.234;5.484;2023-03-20T14:59:22;11.20;99.90
44069;DHT22;29738;51.234;5.484;2023-03-20T15:01:53;11.10;99.90
44069;DHT22;29738;51.234;5.484;2023-03-20T15:07:16;11.10;99.90
44069;DHT22;29738;51.234;5.484;2023-03-20T15:09:45;11.20;99.90
44069;DHT22;29738;51.234;5.484;2023-03-20T15:12:15;11.10;99.90
44069;DHT22;29738;51.234;5.484;2023-03-20T15:14:49;11.00;99.90
44069;DHT22;29738;51.234;5.484;2023-03-20T15:17:20;11.00;99.90
44069;DHT22;29738;51.234;5.484;2023-03-20T15:19:46;11.10;99.90
44069;DHT22;29738;51.234;5.484;2023-03-20T15:22:18;11.00;99.90
44069;DHT22;29738;51.234;5.484;2023-03-20T15:24:54;11.10;99.90
44069;DHT22;29738;51.234;5.484;2023-03-20T15:27:23;11.10;99.90
44069;DHT22;29738;51.234;5.484;2023-03-20T15:29:53;11.10;99.90
44069;DHT22;29738;51.234;5.484;2023-03-20T15:32:22;11.00;99.90
44069;DHT22;29738;51.234;5.484;2023-03-20T15:34:49;11.00;99.90
44069;DHT22;29738;51.234;5.484;2023-03-20T15:37:19;10.90;99.90
44069;DHT22;29738;51.234;5.484;2023-03-20T15:39:52;11.00;99.90
44069;DHT22;29738;51.234;5.484;2023-03-20T15:42:20;10.70;99.90
44069;DHT22;29738;51.234;5.484;2023-03-20T15:44:50;10.90;99.90
44069;DHT22;29738;51.234;5.484;2023-03-20T15:47:24;10.80;99.90
44069;DHT22;29738;51.234;5.484;2023-03-20T15:49:55;10.80;99.90
44069;DHT22;29738;51.234;5.484;2023-03-20T15:54:59;10.90;99.90
44069;DHT22;29738;51.234;5.484;2023-03-20T15:57:51;11.20;99.90
44069;DHT22;29738;51.234;5.484;2023-03-20T16:00:31;11.00;99.90
44069;DHT22;29738;51.234;5.484;2023-03-20T16:03:00;11.10;99.90
44069;DHT22;29738;51.234;5.484;2023-03-20T16:05:29;11.20;99.90
44069;DHT22;29738;51.234;5.484;2023-03-20T16:07:56;11.20;99.90
44069;DHT22;29738;51.234;5.484;2023-03-20T16:10:31;11.20;99.90
44069;DHT22;29738;51.234;5.484;2023-03-20T16:13:03;11.00;99.90
44069;DHT22;29738;51.234;5.484;2023-03-20T16:15:32;11.10;99.90
44069;DHT22;29738;51.234;5.484;2023-03-20T16:18:00;11.00;99.90
44069;DHT22;29738;51.234;5.484;2023-03-20T16:20:33;11.10;99.90
44069;DHT22;29738;51.234;5.484;2023-03-20T16:23:03;11.20;99.90
44069;DHT22;29738;51.234;5.484;2023-03-20T16:25:30;11.40;99.90
44069;DHT22;29738;51.234;5.484;2023-03-20T16:27:57;11.50;99.90
44069;DHT22;29738;51.234;5.484;2023-03-20T16:30:29;11.60;99.90
44069;DHT22;29738;51.234;5.484;2023-03-20T16:33:03;11.40;99.90
44069;DHT22;29738;51.234;5.484;2023-03-20T16:35:44;11.50;99.90
44069;DHT22;29738;51.234;5.484;2023-03-20T16:40:42;11.40;99.90
44069;DHT22;29738;51.234;5.484;2023-03-20T16:43:20;11.40;99.90
44069;DHT22;29738;51.234;5.484;2023-03-20T16:45:55;11.50;99.90
44069;DHT22;29738;51.234;5.484;2023-03-20T16:48:26;11.40;99.90
44069;DHT22;29738;51.234;5.484;2023-03-20T16:51:01;11.50;99.90
44069;DHT22;29738;51.234;5.484;2023-03-20T16:53:35;11.40;99.90
44069;DHT22;29738;51.234;5.484;2023-03-20T16:56:02;11.60;99.90
44069;DHT22;29738;51.234;5.484;2023-03-20T16:58:32;11.50;99.90
44069;DHT22;29738;51.234;5.484;2023-03-20T17:01:04;11.50;99.90
44069;DHT22;29738;51.234;5.484;2023-03-20T17:03:37;11.50;99.90
44069;DHT22;29738;51.234;5.484;2023-03-20T17:09:00;11.20;99.90
44069;DHT22;29738;51.234;5.484;2023-03-20T17:11:29;11.30;99.90
44069;DHT22;29738;51.234;5.484;2023-03-20T17:13:57;11.10;99.90
44069;DHT22;29738;51.234;5.484;2023-03-20T17:16:24;11.00;99.90
44069;DHT22;29738;51.234;5.484;2023-03-20T17:19:13;11.30;99.90
44069;DHT22;29738;51.234;5.484;2023-03-20T17:21:39;11.30;99.90
44069;DHT22;29738;51.234;5.484;2023-03-20T17:24:06;11.20;99.90
44069;DHT22;29738;51.234;5.484;2023-03-20T17:26:32;11.30;99.90
44069;DHT22;29738;51.234;5.484;2023-03-20T17:28:58;11.20;99.90
44069;DHT22;29738;51.234;5.484;2023-03-20T17:31:24;11.20;99.90
44069;DHT22;29738;51.234;5.484;2023-03-20T17:33:51;11.30;99.90
44069;DHT22;29738;51.234;5.484;2023-03-20T17:36:24;11.30;99.90
44069;DHT22;29738;51.234;5.484;2023-03-20T17:38:51;11.40;99.90
44069;DHT22;29738;51.234;5.484;2023-03-20T17:41:18;11.30;99.90
44069;DHT22;29738;51.234;5.484;2023-03-20T17:43:45;11.20;99.90
44069;DHT22;29738;51.234;5.484;2023-03-20T17:46:21;11.10;99.90
44069;DHT22;29738;51.234;5.484;2023-03-20T17:48:51;11.30;99.90
44069;DHT22;29738;51.234;5.484;2023-03-20T17:51:19;11.00;99.90
44069;DHT22;29738;51.234;5.484;2023-03-20T17:53:45;10.80;99.90
44069;DHT22;29738;51.234;5.484;2023-03-20T17:56:13;10.80;99.90
44069;DHT22;29738;51.234;5.484;2023-03-20T17:58:40;10.80;99.90
44069;DHT22;29738;51.234;5.484;2023-03-20T18:01:10;10.60;99.90
44069;DHT22;29738;51.234;5.484;2023-03-20T18:03:36;10.70;99.90
44069;DHT22;29738;51.234;5.484;2023-03-20T18:06:03;10.80;99.90
44069;DHT22;29738;51.234;5.484;2023-03-20T18:08:30;10.70;99.90
44069;DHT22;29738;51.234;5.484;2023-03-20T18:10:56;10.90;99.90